sensor_id;sensor_type;location;lat;lon;timestamp;temperature;humidity
45137;DHT22;30894;51.740;19.498;2024-01-30T00:00:19;0.30;99.90
45137;DHT22;30894;51.740;19.498;2024-01-30T00:03:07;0.30;99.90
45137;DHT22;30894;51.740;19.498;2024-01-30T00:05:36;0.30;99.90
45137;DHT22;30894;51.740;19.498;2024-01-30T00:08:13;0.30;99.90
45137;DHT22;30894;51.740;19.498;2024-01-30T00:10:40;0.30;99.90
45137;DHT22;30894;51.740;19.498;2024-01-30T00:13:07;0.30;99.90
45137;DHT22;30894;51.740;19.498;2024-01-30T00:15:34;0.30;99.90
45137;DHT22;30894;51.740;19.498;2024-01-30T00:18:02;0.20;99.90
45137;DHT22;30894;51.740;19.498;2024-01-30T00:20:30;0.20;99.90
45137;DHT22;30894;51.740;19.498;2024-01-30T00:23:01;0.10;99.90
45137;DHT22;30894;51.740;19.498;2024-01-30T00:25:27;0.10;99.90
45137;DHT22;30894;51.740;19.498;2024-01-30T00:27:54;0.00;99.90
45137;DHT22;30894;51.740;19.498;2024-01-30T00:30:20;0.00;99.90
45137;DHT22;30894;51.740;19.498;2024-01-30T00:32:47;-0.10;99.90
45137;DHT22;30894;51.740;19.498;2024-01-30T00:35:13;-0.10;99.90
45137;DHT22;30894;51.740;19.498;2024-01-30T00:37:40;0.20;99.90
45137;DHT22;30894;51.740;19.498;2024-01-30T00:40:13;-0.10;99.90
45137;DHT22;30894;51.740;19.498;2024-01-30T00:42:44;-0.20;99.90
45137;DHT22;30894;51.740;19.498;2024-01-30T00:45:16;-0.20;99.90
45137;DHT22;30894;51.740;19.498;2024-01-30T00:47:46;-0.20;99.90
45137;DHT22;30894;51.740;19.498;2024-01-30T00:50:12;-0.40;99.90
45137;DHT22;30894;51.740;19.498;2024-01-30T00:52:39;-0.20;99.90
45137;DHT22;30894;51.740;19.498;2024-01-30T00:55:11;-0.30;99.90
45137;DHT22;30894;51.740;19.498;2024-01-30T00:57:41;-0.30;99.90
45137;DHT22;30894;51.740;19.498;2024-01-30T01:00:12;0.00;99.90
45137;DHT22;30894;51.740;19.498;2024-01-30T01:02:45;-0.20;99.90
45137;DHT22;30894;51.740;19.498;2024-01-30T01:05:13;-0.20;99.90
45137;DHT22;30894;51.740;19.498;2024-01-30T01:07:40;-0.10;99.90
45137;DHT22;30894;51.740;19.498;2024-01-30T01:10:08;-0.10;99.90
45137;DHT22;30894;51.740;19.498;2024-01-30T01:12:36;-0.10;99.90
45137;DHT22;30894;51.740;19.498;2024-01-30T01:15:03;-0.20;99.90
45137;DHT22;30894;51.740;19.498;2024-01-30T01:17:39;-0.10;99.90
45137;DHT22;30894;51.740;19.498;2024-01-30T01:20:07;-0.20;99.90
45137;DHT22;30894;51.740;19.498;2024-01-30T01:22:35;-0.10;99.90
45137;DHT22;30894;51.740;19.498;2024-01-30T01:25:09;-0.10;99.90
45137;DHT22;30894;51.740;19.498;2024-01-30T01:27:44;-0.10;99.90
45137;DHT22;30894;51.740;19.498;2024-01-30T01:30:17;-0.20;99.90
45137;DHT22;30894;51.740;19.498;2024-01-30T01:32:53;-0.20;99.90
45137;DHT22;30894;51.740;19.498;2024-01-30T01:35:25;-0.20;99.90
45137;DHT22;30894;51.740;19.498;2024-01-30T01:37:54;-0.20;99.90
45137;DHT22;30894;51.740;19.498;2024-01-30T01:40:24;-0.20;99.90
45137;DHT22;30894;51.740;19.498;2024-01-30T01:42:52;-0.20;99.90
45137;DHT22;30894;51.740;19.498;2024-01-30T01:45:19;-0.20;99.90
45137;DHT22;30894;51.740;19.498;2024-01-30T01:47:52;-0.10;99.90
45137;DHT22;30894;51.740;19.498;2024-01-30T01:50:20;-0.20;99.90
45137;DHT22;30894;51.740;19.498;2024-01-30T01:52:48;-0.20;99.90
45137;DHT22;30894;51.740;19.498;2024-01-30T01:55:19;-0.20;99.90
45137;DHT22;30894;51.740;19.498;2024-01-30T01:57:54;-0.20;99.90
45137;DHT22;30894;51.740;19.498;2024-01-30T02:00:21;-0.20;99.90
45137;DHT22;30894;51.740;19.498;2024-01-30T02:02:47;-0.30;99.90
45137;DHT22;30894;51.740;19.498;2024-01-30T02:05:16;-0.30;99.90
45137;DHT22;30894;51.740;19.498;2024-01-30T02:07:45;-0.30;99.90
45137;DHT22;30894;51.740;19.498;2024-01-30T02:10:13;-0.40;99.90
45137;DHT22;30894;51.740;19.498;2024-01-30T02:12:40;-0.40;99.90
45137;DHT22;30894;51.740;19.498;2024-01-30T02:15:06;-0.50;99.90
45137;DHT22;30894;51.740;19.498;2024-01-30T02:17:40;-0.50;99.90
45137;DHT22;30894;51.740;19.498;2024-01-30T02:20:07;-0.50;99.90
45137;DHT22;30894;51.740;19.498;2024-01-30T02:22:38;-0.50;99.90
45137;DHT22;30894;51.740;19.498;2024-01-30T02:25:07;-0.50;99.90
45137;DHT22;30894;51.740;19.498;2024-01-30T02:27:36;-0.40;99.90
45137;DHT22;30894;51.740;19.498;2024-01-30T02:30:05;-0.60;99.90
45137;DHT22;30894;51.740;19.498;2024-01-30T02:32:34;-0.60;99.90
45137;DHT22;30894;51.740;19.498;2024-01-30T02:35:00;-0.60;99.90
45137;DHT22;30894;51.740;19.498;2024-01-30T02:37:26;-0.70;99.90
45137;DHT22;30894;51.740;19.498;2024-01-30T02:39:53;-0.70;99.90
45137;DHT22;30894;51.740;19.498;2024-01-30T02:42:20;-0.80;99.90
45137;DHT22;30894;51.740;19.498;2024-01-30T02:44:47;-0.70;99.90
45137;DHT22;30894;51.740;19.498;2024-01-30T02:47:16;-0.80;99.90
45137;DHT22;30894;51.740;19.498;2024-01-30T02:49:48;-0.80;99.90
45137;DHT22;30894;51.740;19.498;2024-01-30T02:52:15;-0.80;99.90
45137;DHT22;30894;51.740;19.498;2024-01-30T02:54:41;-0.80;99.90
45137;DHT22;30894;51.740;19.498;2024-01-30T02:57:10;-0.60;99.90
45137;DHT22;30894;51.740;19.498;2024-01-30T02:59:36;-0.80;99.90
45137;DHT22;30894;51.740;19.498;2024-01-30T03:02:11;-0.80;99.90
45137;DHT22;30894;51.740;19.498;2024-01-30T03:04:41;-0.80;99.90
45137;DHT22;30894;51.740;19.498;2024-01-30T03:07:12;-0.80;99.90
45137;DHT22;30894;51.740;19.498;2024-01-30T03:09:38;-0.90;99.90
45137;DHT22;30894;51.740;19.498;2024-01-30T03:12:06;-0.90;99.90
45137;DHT22;30894;51.740;19.498;2024-01-30T03:14:33;-0.80;99.90
45137;DHT22;30894;51.740;19.498;2024-01-30T03:17:02;-0.90;99.90
45137;DHT22;30894;51.740;19.498;2024-01-30T03:19:29;-0.90;99.90
45137;DHT22;30894;51.740;19.498;2024-01-30T03:21:57;-0.90;99.90
45137;DHT22;30894;51.740;19.498;2024-01-30T03:24:24;-0.90;99.90
45137;DHT22;30894;51.740;19.498;2024-01-30T03:26:50;-0.50;99.90
45137;DHT22;30894;51.740;19.498;2024-01-30T03:29:22;-0.90;99.90
45137;DHT22;30894;51.740;19.498;2024-01-30T03:31:54;-0.90;99.90
45137;DHT22;30894;51.740;19.498;2024-01-30T03:34:20;-0.90;99.90
45137;DHT22;30894;51.740;19.498;2024-01-30T03:36:50;-0.70;99.90
45137;DHT22;30894;51.740;19.498;2024-01-30T03:39:16;-0.90;99.90
45137;DHT22;30894;51.740;19.498;2024-01-30T03:41:46;-0.10;99.90
45137;DHT22;30894;51.740;19.498;2024-01-30T03:44:12;-0.90;99.90
45137;DHT22;30894;51.740;19.498;2024-01-30T03:46:39;-0.90;99.90
45137;DHT22;30894;51.740;19.498;2024-01-30T03:49:06;-0.90;99.90
45137;DHT22;30894;51.740;19.498;2024-01-30T03:51:33;-0.80;99.90
45137;DHT22;30894;51.740;19.498;2024-01-30T03:53:59;-0.80;99.90
45137;DHT22;30894;51.740;19.498;2024-01-30T03:56:25;-0.90;99.90
45137;DHT22;30894;51.740;19.498;2024-01-30T03:58:52;-0.90;99.90
45137;DHT22;30894;51.740;19.498;2024-01-30T04:01:19;-0.80;99.90
45137;DHT22;30894;51.740;19.498;2024-01-30T04:03:46;-0.70;99.90
45137;DHT22;30894;51.740;19.498;2024-01-30T04:06:16;-0.90;99.90
45137;DHT22;30894;51.740;19.498;2024-01-30T04:08:44;-0.90;99.90
45137;DHT22;30894;51.740;19.498;2024-01-30T04:11:14;-0.90;99.90
45137;DHT22;30894;51.740;19.498;2024-01-30T04:13:47;-0.80;99.90
45137;DHT22;30894;51.740;19.498;2024-01-30T04:16:21;-0.90;99.90
45137;DHT22;30894;51.740;19.498;2024-01-30T04:18:48;-0.90;99.90
45137;DHT22;30894;51.740;19.498;2024-01-30T04:21:16;-0.90;99.90
45137;DHT22;30894;51.740;19.498;2024-01-30T04:23:44;-0.80;99.90
45137;DHT22;30894;51.740;19.498;2024-01-30T04:26:10;-0.80;99.90
45137;DHT22;30894;51.740;19.498;2024-01-30T04:28:46;-0.80;99.90
45137;DHT22;30894;51.740;19.498;2024-01-30T04:31:22;-0.80;99.90
45137;DHT22;30894;51.740;19.498;2024-01-30T04:33:51;-0.90;99.90
45137;DHT22;30894;51.740;19.498;2024-01-30T04:36:22;-0.70;99.90
45137;DHT22;30894;51.740;19.498;2024-01-30T04:38:57;-0.70;99.90
45137;DHT22;30894;51.740;19.498;2024-01-30T04:41:47;-0.80;99.90
45137;DHT22;30894;51.740;19.498;2024-01-30T04:44:25;-0.70;99.90
45137;DHT22;30894;51.740;19.498;2024-01-30T04:47:03;-0.60;99.90
45137;DHT22;30894;51.740;19.498;2024-01-30T04:49:34;-0.80;99.90
45137;DHT22;30894;51.740;19.498;2024-01-30T04:52:05;-0.80;99.90
45137;DHT22;30894;51.740;19.498;2024-01-30T04:54:35;-0.90;99.90
45137;DHT22;30894;51.740;19.498;2024-01-30T04:57:05;-0.90;99.90
45137;DHT22;30894;51.740;19.498;2024-01-30T04:59:35;-1.00;99.90
45137;DHT22;30894;51.740;19.498;2024-01-30T05:02:04;-1.00;99.90
45137;DHT22;30894;51.740;19.498;2024-01-30T05:04:30;-0.90;99.90
45137;DHT22;30894;51.740;19.498;2024-01-30T05:06:59;-0.90;99.90
45137;DHT22;30894;51.740;19.498;2024-01-30T05:09:26;-0.90;99.90
45137;DHT22;30894;51.740;19.498;2024-01-30T05:11:53;-0.90;99.90
45137;DHT22;30894;51.740;19.498;2024-01-30T05:14:20;-0.90;99.90
45137;DHT22;30894;51.740;19.498;2024-01-30T05:16:49;-0.90;99.90
45137;DHT22;30894;51.740;19.498;2024-01-30T05:19:18;-0.90;99.90
45137;DHT22;30894;51.740;19.498;2024-01-30T05:21:46;-0.90;99.90
45137;DHT22;30894;51.740;19.498;2024-01-30T05:24:16;-0.90;99.90
45137;DHT22;30894;51.740;19.498;2024-01-30T05:26:43;-0.90;99.90
45137;DHT22;30894;51.740;19.498;2024-01-30T05:29:10;-0.90;99.90
45137;DHT22;30894;51.740;19.498;2024-01-30T05:31:38;-0.90;99.90
45137;DHT22;30894;51.740;19.498;2024-01-30T05:34:04;-0.90;99.90
45137;DHT22;30894;51.740;19.498;2024-01-30T05:36:33;-1.00;99.90
45137;DHT22;30894;51.740;19.498;2024-01-30T05:39:00;-1.00;99.90
45137;DHT22;30894;51.740;19.498;2024-01-30T05:41:26;-1.00;99.90
45137;DHT22;30894;51.740;19.498;2024-01-30T05:43:53;-1.00;99.90
45137;DHT22;30894;51.740;19.498;2024-01-30T05:46:19;-1.00;99.90
45137;DHT22;30894;51.740;19.498;2024-01-30T05:48:46;-1.10;99.90
45137;DHT22;30894;51.740;19.498;2024-01-30T05:51:14;-1.10;99.90
45137;DHT22;30894;51.740;19.498;2024-01-30T05:53:42;-1.10;99.90
45137;DHT22;30894;51.740;19.498;2024-01-30T05:56:10;-1.10;99.90
45137;DHT22;30894;51.740;19.498;2024-01-30T05:58:37;-1.10;99.90
45137;DHT22;30894;51.740;19.498;2024-01-30T06:01:07;-1.20;99.90
45137;DHT22;30894;51.740;19.498;2024-01-30T06:03:36;-1.20;99.90
45137;DHT22;30894;51.740;19.498;2024-01-30T06:06:03;-1.10;99.90
45137;DHT22;30894;51.740;19.498;2024-01-30T06:08:32;-1.10;99.90
45137;DHT22;30894;51.740;19.498;2024-01-30T06:10:59;-1.20;99.90
45137;DHT22;30894;51.740;19.498;2024-01-30T06:13:28;-1.10;99.90
45137;DHT22;30894;51.740;19.498;2024-01-30T06:15:58;-1.10;99.90
45137;DHT22;30894;51.740;19.498;2024-01-30T06:18:27;-1.10;99.90
45137;DHT22;30894;51.740;19.498;2024-01-30T06:21:00;-1.10;99.90
45137;DHT22;30894;51.740;19.498;2024-01-30T06:23:26;-1.10;99.90
45137;DHT22;30894;51.740;19.498;2024-01-30T06:25:55;-1.10;99.90
45137;DHT22;30894;51.740;19.498;2024-01-30T06:28:21;-1.10;99.90
45137;DHT22;30894;51.740;19.498;2024-01-30T06:30:52;-1.20;99.90
45137;DHT22;30894;51.740;19.498;2024-01-30T06:33:18;-1.20;99.90
45137;DHT22;30894;51.740;19.498;2024-01-30T06:35:46;-1.10;99.90
45137;DHT22;30894;51.740;19.498;2024-01-30T06:38:12;-1.10;99.90
45137;DHT22;30894;51.740;19.498;2024-01-30T06:40:39;-1.10;99.90
45137;DHT22;30894;51.740;19.498;2024-01-30T06:43:05;-1.10;99.90
45137;DHT22;30894;51.740;19.498;2024-01-30T06:45:32;-1.10;99.90
45137;DHT22;30894;51.740;19.498;2024-01-30T06:47:59;-1.00;99.90
45137;DHT22;30894;51.740;19.498;2024-01-30T06:50:26;-1.00;99.90
45137;DHT22;30894;51.740;19.498;2024-01-30T06:52:53;-0.70;99.90
45137;DHT22;30894;51.740;19.498;2024-01-30T06:55:21;-0.50;99.90
45137;DHT22;30894;51.740;19.498;2024-01-30T06:57:47;-0.30;99.90
45137;DHT22;30894;51.740;19.498;2024-01-30T07:00:14;-0.10;99.90
45137;DHT22;30894;51.740;19.498;2024-01-30T07:02:41;0.10;99.90
45137;DHT22;30894;51.740;19.498;2024-01-30T07:05:11;0.30;99.90
45137;DHT22;30894;51.740;19.498;2024-01-30T07:07:37;0.60;99.90
45137;DHT22;30894;51.740;19.498;2024-01-30T07:10:04;0.80;99.90
45137;DHT22;30894;51.740;19.498;2024-01-30T07:12:31;1.00;99.90
45137;DHT22;30894;51.740;19.498;2024-01-30T07:15:00;1.30;99.90
45137;DHT22;30894;51.740;19.498;2024-01-30T07:17:26;1.50;99.90
45137;DHT22;30894;51.740;19.498;2024-01-30T07:19:56;1.80;99.90
45137;DHT22;30894;51.740;19.498;2024-01-30T07:22:23;2.10;99.90
45137;DHT22;30894;51.740;19.498;2024-01-30T07:24:53;2.30;99.90
45137;DHT22;30894;51.740;19.498;2024-01-30T07:27:19;2.40;99.90
45137;DHT22;30894;51.740;19.498;2024-01-30T07:29:46;2.60;99.90
45137;DHT22;30894;51.740;19.498;2024-01-30T07:32:15;2.80;99.90
45137;DHT22;30894;51.740;19.498;2024-01-30T07:34:42;3.00;99.90
45137;DHT22;30894;51.740;19.498;2024-01-30T07:37:08;3.30;99.90
45137;DHT22;30894;51.740;19.498;2024-01-30T07:39:37;3.60;99.90
45137;DHT22;30894;51.740;19.498;2024-01-30T07:42:03;3.80;99.90
45137;DHT22;30894;51.740;19.498;2024-01-30T07:44:31;4.00;99.90
45137;DHT22;30894;51.740;19.498;2024-01-30T07:46:57;4.30;99.90
45137;DHT22;30894;51.740;19.498;2024-01-30T07:49:23;4.50;99.90
45137;DHT22;30894;51.740;19.498;2024-01-30T07:51:50;4.70;99.90
45137;DHT22;30894;51.740;19.498;2024-01-30T07:54:19;4.90;99.90
45137;DHT22;30894;51.740;19.498;2024-01-30T07:56:45;5.20;99.90
45137;DHT22;30894;51.740;19.498;2024-01-30T07:59:12;5.40;99.90
45137;DHT22;30894;51.740;19.498;2024-01-30T08:01:38;5.70;99.90
45137;DHT22;30894;51.740;19.498;2024-01-30T08:04:05;6.00;99.90
45137;DHT22;30894;51.740;19.498;2024-01-30T08:06:31;6.20;99.90
45137;DHT22;30894;51.740;19.498;2024-01-30T08:09:04;6.40;99.90
45137;DHT22;30894;51.740;19.498;2024-01-30T08:11:36;6.60;99.90
45137;DHT22;30894;51.740;19.498;2024-01-30T08:14:03;6.80;99.90
45137;DHT22;30894;51.740;19.498;2024-01-30T08:16:29;7.00;99.90
45137;DHT22;30894;51.740;19.498;2024-01-30T08:18:56;7.20;99.80
45137;DHT22;30894;51.740;19.498;2024-01-30T08:21:23;7.40;99.60
45137;DHT22;30894;51.740;19.498;2024-01-30T08:23:50;7.60;99.00
45137;DHT22;30894;51.740;19.498;2024-01-30T08:26:16;7.70;98.60
45137;DHT22;30894;51.740;19.498;2024-01-30T08:28:44;8.00;98.40
45137;DHT22;30894;51.740;19.498;2024-01-30T08:31:12;8.10;98.00
45137;DHT22;30894;51.740;19.498;2024-01-30T08:33:39;8.10;97.40
45137;DHT22;30894;51.740;19.498;2024-01-30T08:36:05;8.40;97.00
45137;DHT22;30894;51.740;19.498;2024-01-30T08:38:32;8.60;96.60
45137;DHT22;30894;51.740;19.498;2024-01-30T08:40:58;8.80;96.10
45137;DHT22;30894;51.740;19.498;2024-01-30T08:43:25;9.00;95.80
45137;DHT22;30894;51.740;19.498;2024-01-30T08:45:51;9.10;95.50
45137;DHT22;30894;51.740;19.498;2024-01-30T08:48:18;9.20;95.20
45137;DHT22;30894;51.740;19.498;2024-01-30T08:50:44;9.40;94.80
45137;DHT22;30894;51.740;19.498;2024-01-30T08:53:13;9.70;94.40
45137;DHT22;30894;51.740;19.498;2024-01-30T08:55:39;9.90;94.00
45137;DHT22;30894;51.740;19.498;2024-01-30T08:58:06;10.00;93.80
45137;DHT22;30894;51.740;19.498;2024-01-30T09:00:32;10.20;93.50
45137;DHT22;30894;51.740;19.498;2024-01-30T09:03:00;10.40;93.10
45137;DHT22;30894;51.740;19.498;2024-01-30T09:05:26;10.50;92.80
45137;DHT22;30894;51.740;19.498;2024-01-30T09:07:53;10.70;92.30
45137;DHT22;30894;51.740;19.498;2024-01-30T09:10:19;10.80;92.00
45137;DHT22;30894;51.740;19.498;2024-01-30T09:12:48;11.00;91.70
45137;DHT22;30894;51.740;19.498;2024-01-30T09:15:16;11.20;91.30
45137;DHT22;30894;51.740;19.498;2024-01-30T09:17:44;11.30;91.00
45137;DHT22;30894;51.740;19.498;2024-01-30T09:20:12;11.30;90.60
45137;DHT22;30894;51.740;19.498;2024-01-30T09:22:58;11.50;90.30
45137;DHT22;30894;51.740;19.498;2024-01-30T09:25:25;11.70;90.00
45137;DHT22;30894;51.740;19.498;2024-01-30T09:27:52;12.10;89.40
45137;DHT22;30894;51.740;19.498;2024-01-30T09:30:20;12.30;87.70
45137;DHT22;30894;51.740;19.498;2024-01-30T09:32:52;12.30;87.20
45137;DHT22;30894;51.740;19.498;2024-01-30T09:35:18;12.60;86.70
45137;DHT22;30894;51.740;19.498;2024-01-30T09:37:44;12.80;86.20
45137;DHT22;30894;51.740;19.498;2024-01-30T09:40:10;12.90;85.20
45137;DHT22;30894;51.740;19.498;2024-01-30T09:42:41;13.00;85.00
45137;DHT22;30894;51.740;19.498;2024-01-30T09:45:16;13.00;84.30
45137;DHT22;30894;51.740;19.498;2024-01-30T09:47:45;13.00;83.80
45137;DHT22;30894;51.740;19.498;2024-01-30T09:50:13;13.30;83.70
45137;DHT22;30894;51.740;19.498;2024-01-30T09:52:40;13.20;83.20
45137;DHT22;30894;51.740;19.498;2024-01-30T09:55:08;13.30;82.80
45137;DHT22;30894;51.740;19.498;2024-01-30T09:57:42;13.40;82.60
45137;DHT22;30894;51.740;19.498;2024-01-30T10:00:10;13.60;82.20
45137;DHT22;30894;51.740;19.498;2024-01-30T10:02:39;13.70;81.90
45137;DHT22;30894;51.740;19.498;2024-01-30T10:05:09;13.70;81.70
45137;DHT22;30894;51.740;19.498;2024-01-30T10:07:36;13.70;81.60
45137;DHT22;30894;51.740;19.498;2024-01-30T10:10:04;13.80;81.40
45137;DHT22;30894;51.740;19.498;2024-01-30T10:12:32;14.00;80.60
45137;DHT22;30894;51.740;19.498;2024-01-30T10:14:59;14.00;80.10
45137;DHT22;30894;51.740;19.498;2024-01-30T10:17:25;14.20;80.00
45137;DHT22;30894;51.740;19.498;2024-01-30T10:19:52;14.40;79.40
45137;DHT22;30894;51.740;19.498;2024-01-30T10:22:19;14.60;78.90
45137;DHT22;30894;51.740;19.498;2024-01-30T10:24:46;14.60;78.60
45137;DHT22;30894;51.740;19.498;2024-01-30T10:27:15;14.60;78.40
45137;DHT22;30894;51.740;19.498;2024-01-30T10:29:42;14.60;78.30
45137;DHT22;30894;51.740;19.498;2024-01-30T10:32:09;14.80;78.10
45137;DHT22;30894;51.740;19.498;2024-01-30T10:34:36;15.00;77.80
45137;DHT22;30894;51.740;19.498;2024-01-30T10:37:09;15.10;77.30
45137;DHT22;30894;51.740;19.498;2024-01-30T10:39:39;15.30;77.00
45137;DHT22;30894;51.740;19.498;2024-01-30T10:42:12;15.40;76.50
45137;DHT22;30894;51.740;19.498;2024-01-30T10:47:36;15.60;76.20
45137;DHT22;30894;51.740;19.498;2024-01-30T10:50:03;15.70;76.00
45137;DHT22;30894;51.740;19.498;2024-01-30T10:52:34;15.80;75.40
45137;DHT22;30894;51.740;19.498;2024-01-30T10:55:03;15.80;75.10
45137;DHT22;30894;51.740;19.498;2024-01-30T10:57:53;15.70;74.50
45137;DHT22;30894;51.740;19.498;2024-01-30T11:00:19;15.70;74.40
45137;DHT22;30894;51.740;19.498;2024-01-30T11:02:50;15.60;74.40
45137;DHT22;30894;51.740;19.498;2024-01-30T11:05:25;15.50;74.20
45137;DHT22;30894;51.740;19.498;2024-01-30T11:07:55;15.60;74.70
45137;DHT22;30894;51.740;19.498;2024-01-30T11:10:34;15.60;73.30
45137;DHT22;30894;51.740;19.498;2024-01-30T11:13:13;15.60;73.60
45137;DHT22;30894;51.740;19.498;2024-01-30T11:15:40;15.60;73.30
45137;DHT22;30894;51.740;19.498;2024-01-30T11:18:09;15.70;72.90
45137;DHT22;30894;51.740;19.498;2024-01-30T11:20:36;15.80;72.40
45137;DHT22;30894;51.740;19.498;2024-01-30T11:23:03;15.80;72.10
45137;DHT22;30894;51.740;19.498;2024-01-30T11:25:33;15.70;71.60
45137;DHT22;30894;51.740;19.498;2024-01-30T11:28:04;15.80;71.80
45137;DHT22;30894;51.740;19.498;2024-01-30T11:30:32;15.80;71.50
45137;DHT22;30894;51.740;19.498;2024-01-30T11:33:12;15.80;71.20
45137;DHT22;30894;51.740;19.498;2024-01-30T11:35:42;15.50;71.30
45137;DHT22;30894;51.740;19.498;2024-01-30T11:38:13;15.60;71.40
45137;DHT22;30894;51.740;19.498;2024-01-30T11:40:43;15.60;71.10
45137;DHT22;30894;51.740;19.498;2024-01-30T11:43:10;15.50;71.00
45137;DHT22;30894;51.740;19.498;2024-01-30T11:45:40;15.60;71.50
45137;DHT22;30894;51.740;19.498;2024-01-30T11:48:12;15.90;71.20
45137;DHT22;30894;51.740;19.498;2024-01-30T11:50:39;15.80;70.80
45137;DHT22;30894;51.740;19.498;2024-01-30T11:53:13;16.00;70.80
45137;DHT22;30894;51.740;19.498;2024-01-30T11:55:39;16.00;70.60
45137;DHT22;30894;51.740;19.498;2024-01-30T11:58:07;16.20;70.40
45137;DHT22;30894;51.740;19.498;2024-01-30T12:00:36;16.30;70.00
45137;DHT22;30894;51.740;19.498;2024-01-30T12:03:06;16.20;69.60
45137;DHT22;30894;51.740;19.498;2024-01-30T12:05:32;16.20;69.60
45137;DHT22;30894;51.740;19.498;2024-01-30T12:07:59;16.20;69.50
45137;DHT22;30894;51.740;19.498;2024-01-30T12:10:25;16.10;69.20
45137;DHT22;30894;51.740;19.498;2024-01-30T12:12:53;16.00;69.60
45137;DHT22;30894;51.740;19.498;2024-01-30T12:15:26;16.20;69.50
45137;DHT22;30894;51.740;19.498;2024-01-30T12:18:04;16.20;69.30
45137;DHT22;30894;51.740;19.498;2024-01-30T12:20:33;16.20;69.30
45137;DHT22;30894;51.740;19.498;2024-01-30T12:23:01;16.10;69.30
45137;DHT22;30894;51.740;19.498;2024-01-30T12:25:27;16.10;69.40
45137;DHT22;30894;51.740;19.498;2024-01-30T12:27:54;16.30;69.40
45137;DHT22;30894;51.740;19.498;2024-01-30T12:30:23;16.20;68.80
45137;DHT22;30894;51.740;19.498;2024-01-30T12:32:53;16.20;69.10
45137;DHT22;30894;51.740;19.498;2024-01-30T12:35:23;16.00;69.10
45137;DHT22;30894;51.740;19.498;2024-01-30T12:37:51;15.90;69.50
45137;DHT22;30894;51.740;19.498;2024-01-30T12:40:18;15.90;69.50
45137;DHT22;30894;51.740;19.498;2024-01-30T12:42:47;15.80;69.80
45137;DHT22;30894;51.740;19.498;2024-01-30T12:45:16;15.90;69.60
45137;DHT22;30894;51.740;19.498;2024-01-30T12:47:49;15.90;69.60
45137;DHT22;30894;51.740;19.498;2024-01-30T12:50:21;15.90;69.10
45137;DHT22;30894;51.740;19.498;2024-01-30T12:52:50;15.90;69.40
45137;DHT22;30894;51.740;19.498;2024-01-30T12:55:17;15.70;69.40
45137;DHT22;30894;51.740;19.498;2024-01-30T12:57:44;15.50;69.50
45137;DHT22;30894;51.740;19.498;2024-01-30T13:00:10;15.40;69.50
45137;DHT22;30894;51.740;19.498;2024-01-30T13:02:38;15.20;69.70
45137;DHT22;30894;51.740;19.498;2024-01-30T13:05:08;15.10;69.80
45137;DHT22;30894;51.740;19.498;2024-01-30T13:07:34;15.00;69.80
45137;DHT22;30894;51.740;19.498;2024-01-30T13:10:02;15.00;70.00
45137;DHT22;30894;51.740;19.498;2024-01-30T13:12:32;15.00;70.10
45137;DHT22;30894;51.740;19.498;2024-01-30T13:15:00;15.00;69.90
45137;DHT22;30894;51.740;19.498;2024-01-30T13:17:29;15.00;69.80
45137;DHT22;30894;51.740;19.498;2024-01-30T13:19:55;14.80;69.80
45137;DHT22;30894;51.740;19.498;2024-01-30T13:22:24;14.70;70.10
45137;DHT22;30894;51.740;19.498;2024-01-30T13:24:50;14.60;70.10
45137;DHT22;30894;51.740;19.498;2024-01-30T13:27:17;14.50;70.50
45137;DHT22;30894;51.740;19.498;2024-01-30T13:29:47;14.50;70.60
45137;DHT22;30894;51.740;19.498;2024-01-30T13:32:25;14.30;70.60
45137;DHT22;30894;51.740;19.498;2024-01-30T13:34:53;14.20;71.10
45137;DHT22;30894;51.740;19.498;2024-01-30T13:37:19;14.10;71.50
45137;DHT22;30894;51.740;19.498;2024-01-30T13:39:48;13.90;71.20
45137;DHT22;30894;51.740;19.498;2024-01-30T13:42:15;13.90;71.30
45137;DHT22;30894;51.740;19.498;2024-01-30T13:44:42;13.60;71.70
45137;DHT22;30894;51.740;19.498;2024-01-30T13:47:13;13.40;72.00
45137;DHT22;30894;51.740;19.498;2024-01-30T13:49:41;13.30;72.50
45137;DHT22;30894;51.740;19.498;2024-01-30T13:52:08;13.20;72.60
45137;DHT22;30894;51.740;19.498;2024-01-30T13:54:34;13.20;72.80
45137;DHT22;30894;51.740;19.498;2024-01-30T13:57:01;13.10;73.30
45137;DHT22;30894;51.740;19.498;2024-01-30T13:59:27;13.00;73.60
45137;DHT22;30894;51.740;19.498;2024-01-30T14:01:55;12.80;74.10
45137;DHT22;30894;51.740;19.498;2024-01-30T14:04:21;12.70;74.50
45137;DHT22;30894;51.740;19.498;2024-01-30T14:06:48;12.60;74.90
45137;DHT22;30894;51.740;19.498;2024-01-30T14:09:15;12.50;75.10
45137;DHT22;30894;51.740;19.498;2024-01-30T14:11:42;12.30;75.60
45137;DHT22;30894;51.740;19.498;2024-01-30T14:14:09;12.10;76.00
45137;DHT22;30894;51.740;19.498;2024-01-30T14:16:36;11.80;76.50
45137;DHT22;30894;51.740;19.498;2024-01-30T14:19:02;11.70;77.00
45137;DHT22;30894;51.740;19.498;2024-01-30T14:21:29;11.60;77.50
45137;DHT22;30894;51.740;19.498;2024-01-30T14:23:55;11.40;78.00
45137;DHT22;30894;51.740;19.498;2024-01-30T14:26:22;11.20;78.20
45137;DHT22;30894;51.740;19.498;2024-01-30T14:28:48;11.00;78.80
45137;DHT22;30894;51.740;19.498;2024-01-30T14:31:17;10.80;79.20
45137;DHT22;30894;51.740;19.498;2024-01-30T14:33:44;10.70;79.40
45137;DHT22;30894;51.740;19.498;2024-01-30T14:36:14;10.60;79.90
45137;DHT22;30894;51.740;19.498;2024-01-30T14:38:40;10.40;80.40
45137;DHT22;30894;51.740;19.498;2024-01-30T14:41:08;10.20;81.00
45137;DHT22;30894;51.740;19.498;2024-01-30T14:43:34;10.00;81.50
45137;DHT22;30894;51.740;19.498;2024-01-30T14:46:03;9.70;81.60
45137;DHT22;30894;51.740;19.498;2024-01-30T14:48:33;9.60;82.20
45137;DHT22;30894;51.740;19.498;2024-01-30T14:50:59;9.40;83.10
45137;DHT22;30894;51.740;19.498;2024-01-30T14:53:27;9.10;83.80
45137;DHT22;30894;51.740;19.498;2024-01-30T14:55:53;8.80;84.60
45137;DHT22;30894;51.740;19.498;2024-01-30T14:58:23;8.60;85.30
45137;DHT22;30894;51.740;19.498;2024-01-30T15:00:53;8.30;86.00
45137;DHT22;30894;51.740;19.498;2024-01-30T15:03:21;8.10;86.70
45137;DHT22;30894;51.740;19.498;2024-01-30T15:05:51;7.80;87.40
45137;DHT22;30894;51.740;19.498;2024-01-30T15:08:17;7.60;88.30
45137;DHT22;30894;51.740;19.498;2024-01-30T15:10:44;7.50;88.80
45137;DHT22;30894;51.740;19.498;2024-01-30T15:13:15;7.20;89.10
45137;DHT22;30894;51.740;19.498;2024-01-30T15:15:42;7.00;89.50
45137;DHT22;30894;51.740;19.498;2024-01-30T15:18:08;6.80;90.00
45137;DHT22;30894;51.740;19.498;2024-01-30T15:20:39;6.70;90.20
45137;DHT22;30894;51.740;19.498;2024-01-30T15:23:34;6.40;90.60
45137;DHT22;30894;51.740;19.498;2024-01-30T15:26:03;6.10;91.00
45137;DHT22;30894;51.740;19.498;2024-01-30T15:28:35;5.80;91.40
45137;DHT22;30894;51.740;19.498;2024-01-30T15:31:07;5.60;91.80